Time;durP1;ratioP1;P1;durP2;ratioP2;P2;SDS_P1;SDS_P2;PMS_P1;PMS_P2;Temp;Humidity;BMP_temperature;BMP_pressure;BME280_temperature;BME280_humidity;BME280_pressure;Samples;Min_cycle;Max_cycle;Signal;HPM_P1;HPM_P2
2022/05/30 00:01:06;;;;;;;6.78;1.83;;;19.60;54.70;;;;;;4988599;28;20518;-74
2022/05/30 00:03:32;;;;;;;6.78;1.70;;;19.60;54.90;;;;;;4986951;28;20557;-74
2022/05/30 00:05:57;;;;;;;6.47;1.98;;;19.60;54.80;;;;;;5003258;22;20116;-77
2022/05/30 00:08:23;;;;;;;8.75;1.77;;;19.50;55.10;;;;;;5002709;28;20026;-77
2022/05/30 00:10:49;;;;;;;7.63;1.80;;;19.50;54.90;;;;;;4995579;28;20462;-77
2022/05/30 00:13:15;;;;;;;6.93;1.75;;;19.50;55.20;;;;;;4995095;28;20026;-77
2022/05/30 00:15:41;;;;;;;5.93;1.90;;;19.50;55.30;;;;;;4995244;28;20030;-77
2022/05/30 00:18:12;;;;;;;5.93;2.17;;;19.50;55.50;;;;;;4996290;28;20030;-77
2022/05/30 00:20:42;;;;;;;5.38;2.00;;;19.50;55.60;;;;;;4994742;28;20042;-77
2022/05/30 00:23:07;;;;;;;7.35;1.88;;;19.40;55.30;;;;;;4994717;28;20026;-77
2022/05/30 00:25:33;;;;;;;4.97;1.50;;;19.30;55.50;;;;;;4994924;28;20228;-77
2022/05/30 00:27:59;;;;;;;7.05;1.60;;;19.30;55.80;;;;;;4994307;28;20500;-77
2022/05/30 00:30:25;;;;;;;6.45;1.75;;;19.30;55.60;;;;;;4994946;28;20252;-77
2022/05/30 00:32:50;;;;;;;6.60;1.55;;;19.30;55.70;;;;;;4994858;28;20054;-77
2022/05/30 00:35:16;;;;;;;7.72;1.90;;;19.20;56.20;;;;;;4996419;28;20037;-77
2022/05/30 00:37:42;;;;;;;5.35;1.60;;;19.20;56.30;;;;;;4994400;28;20027;-77
2022/05/30 00:40:08;;;;;;;6.32;1.98;;;19.30;56.50;;;;;;4993903;28;20045;-77
2022/05/30 00:42:34;;;;;;;4.28;1.67;;;19.20;56.30;;;;;;4994080;28;20030;-77
2022/05/30 00:45:00;;;;;;;6.65;1.65;;;19.10;56.50;;;;;;4994382;28;20500;-77
2022/05/30 00:47:26;;;;;;;6.25;1.70;;;19.00;56.60;;;;;;4994506;28;20034;-77
2022/05/30 00:49:53;;;;;;;4.88;1.55;;;18.90;56.50;;;;;;4995417;28;20472;-77
2022/05/30 00:52:33;;;;;;;6.28;2.35;;;19.00;57.00;;;;;;4989400;28;20033;-77
2022/05/30 00:55:07;;;;;;;9.77;1.80;;;19.00;56.90;;;;;;4993546;28;20444;-77
2022/05/30 00:57:34;;;;;;;5.72;2.03;;;19.00;56.80;;;;;;4994769;28;20042;-77
2022/05/30 01:00:17;;;;;;;7.68;1.95;;;18.90;56.60;;;;;;4994258;28;20030;-77
2022/05/30 01:02:43;;;;;;;5.85;1.60;;;19.00;56.70;;;;;;4994302;28;20030;-77
2022/05/30 01:08:22;;;;;;;5.75;1.77;;;18.90;56.80;;;;;;4942077;28;20067;-77
2022/05/30 01:10:48;;;;;;;7.07;1.70;;;19.00;56.70;;;;;;4937072;28;20067;-77
2022/05/30 01:13:13;;;;;;;6.20;1.85;;;18.90;56.60;;;;;;4951989;29;20063;-77
2022/05/30 01:15:39;;;;;;;8.32;1.70;;;18.80;56.80;;;;;;4944821;28;20035;-77
2022/05/30 01:18:09;;;;;;;8.77;1.70;;;18.80;57.40;;;;;;4947758;28;20055;-77
2022/05/30 01:20:55;;;;;;;6.63;1.95;;;18.80;57.30;;;;;;4952455;28;20046;-77
2022/05/30 01:23:50;;;;;;;8.63;1.90;;;18.80;57.00;;;;;;4982720;23;20061;-73
2022/05/30 01:26:33;;;;;;;;;;;18.70;57.20;;;;;;5004069;28;20079;-73
2022/05/30 01:29:14;;;;;;;6.13;2.20;;;18.70;57.10;;;;;;5001003;28;19909;-73
2022/05/30 01:31:39;;;;;;;4.75;1.90;;;18.70;57.40;;;;;;4998658;28;20502;-73
2022/05/30 01:34:05;;;;;;;6.93;1.80;;;18.70;57.40;;;;;;5010115;28;20072;-74
2022/05/30 01:36:33;;;;;;;7.57;1.90;;;18.60;57.40;;;;;;5005716;28;20145;-74
2022/05/30 01:38:59;;;;;;;6.07;1.88;;;18.50;57.70;;;;;;5004715;28;20026;-73
2022/05/30 01:41:24;;;;;;;6.75;2.63;;;18.50;57.90;;;;;;5004509;28;20391;-74
2022/05/30 01:43:50;;;;;;;7.72;2.28;;;18.50;57.60;;;;;;5008431;28;20409;-74
2022/05/30 01:46:21;;;;;;;6.68;2.00;;;18.50;58.50;;;;;;5000390;28;20030;-73
2022/05/30 01:48:48;;;;;;;8.57;1.90;;;18.60;57.80;;;;;;5005594;28;20495;-74
2022/05/30 01:51:16;;;;;;;6.07;2.38;;;18.50;57.70;;;;;;5005507;28;20054;-74
2022/05/30 01:53:42;;;;;;;5.70;2.08;;;18.60;57.80;;;;;;5006983;28;20037;-74
2022/05/30 01:56:08;;;;;;;7.13;1.95;;;18.60;57.80;;;;;;5016564;28;20033;-73
2022/05/30 01:58:35;;;;;;;8.68;2.22;;;18.50;58.10;;;;;;5015694;28;20034;-73
2022/05/30 02:01:16;;;;;;;10.30;2.15;;;18.50;58.00;;;;;;5003135;28;20430;-73
2022/05/30 02:03:44;;;;;;;5.05;2.05;;;18.50;58.00;;;;;;5012244;28;20045;-74
2022/05/30 02:06:09;;;;;;;6.95;2.10;;;18.60;58.10;;;;;;5009788;28;20085;-73
2022/05/30 02:08:35;;;;;;;6.07;1.98;;;18.50;58.20;;;;;;5004282;28;20041;-73
2022/05/30 02:11:01;;;;;;;7.90;1.83;;;18.50;58.30;;;;;;5000980;28;20041;-73
2022/05/30 02:13:26;;;;;;;9.52;2.50;;;18.30;58.10;;;;;;4996867;28;20034;-73
2022/05/30 02:18:36;;;;;;;;;;;18.30;58.50;;;;;;5005550;28;20042;-73
2022/05/30 02:21:03;;;;;;;6.03;2.00;;;18.20;58.90;;;;;;5003148;28;20306;-73
2022/05/30 02:23:29;;;;;;;8.68;2.10;;;18.20;58.80;;;;;;5013936;28;20046;-73
2022/05/30 02:25:55;;;;;;;6.10;2.15;;;18.20;58.70;;;;;;5015346;28;20029;-72
2022/05/30 02:28:20;;;;;;;7.88;2.13;;;18.30;58.70;;;;;;4998070;28;20097;-72
2022/05/30 02:30:46;;;;;;;6.65;2.33;;;18.20;58.70;;;;;;5003922;28;20046;-72
2022/05/30 02:38:41;;;;;;;6.47;1.90;;;18.10;58.70;;;;;;5013124;28;19925;-72
2022/05/30 02:41:06;;;;;;;7.10;1.98;;;18.20;59.00;;;;;;5001402;28;20497;-72
2022/05/30 02:43:32;;;;;;;5.85;2.00;;;18.10;58.80;;;;;;4998098;28;20089;-72
2022/05/30 02:45:58;;;;;;;9.65;2.10;;;18.10;58.90;;;;;;5002719;28;20112;-72
2022/05/30 02:48:24;;;;;;;8.30;2.35;;;17.90;59.00;;;;;;5004059;28;20490;-73
2022/05/30 02:50:49;;;;;;;7.20;2.05;;;17.90;59.00;;;;;;5006912;28;20030;-73
2022/05/30 02:53:15;;;;;;;6.95;2.28;;;17.90;59.20;;;;;;5003346;28;20475;-73
2022/05/30 02:55:41;;;;;;;6.18;2.00;;;18.00;59.10;;;;;;4998263;28;20406;-74
2022/05/30 02:58:07;;;;;;;6.82;2.10;;;17.80;59.10;;;;;;5001676;28;20538;-73
2022/05/30 03:00:32;;;;;;;10.98;3.17;;;17.80;59.40;;;;;;5005147;28;20030;-74
2022/05/30 03:02:58;;;;;;;9.95;2.13;;;17.90;59.10;;;;;;5007065;28;20037;-73
2022/05/30 03:05:24;;;;;;;10.63;2.67;;;17.80;59.20;;;;;;5014895;28;20042;-72
2022/05/30 03:07:50;;;;;;;7.72;2.58;;;17.80;59.50;;;;;;4998608;28;20042;-73
2022/05/30 03:10:16;;;;;;;10.07;2.03;;;17.80;59.70;;;;;;4998115;28;20031;-73
2022/05/30 03:12:41;;;;;;;7.40;2.05;;;17.80;59.60;;;;;;5008731;28;20500;-73
2022/05/30 03:15:08;;;;;;;9.45;2.42;;;17.80;59.60;;;;;;5010460;28;20026;-73
2022/05/30 03:17:34;;;;;;;12.73;2.20;;;17.80;59.70;;;;;;5015616;28;20091;-74
2022/05/30 03:20:00;;;;;;;10.60;2.35;;;17.80;59.90;;;;;;4998872;28;20500;-72
2022/05/30 03:22:26;;;;;;;7.43;2.20;;;17.80;59.90;;;;;;5013228;28;20556;-72
2022/05/30 03:24:51;;;;;;;6.82;2.08;;;17.70;59.90;;;;;;5003414;28;20043;-73
2022/05/30 03:27:17;;;;;;;11.70;2.53;;;17.70;59.90;;;;;;5002042;28;20384;-72
2022/05/30 03:29:43;;;;;;;8.63;2.30;;;17.70;59.90;;;;;;5003204;28;20044;-72
2022/05/30 03:32:09;;;;;;;6.63;2.08;;;17.70;59.90;;;;;;5001393;28;20022;-72
2022/05/30 03:34:34;;;;;;;8.93;2.08;;;17.70;59.90;;;;;;4996381;28;20033;-73
2022/05/30 03:37:01;;;;;;;7.78;2.15;;;17.60;60.00;;;;;;5001818;28;20034;-73
2022/05/30 03:39:27;;;;;;;8.57;2.33;;;17.60;60.20;;;;;;5003230;28;20031;-73
2022/05/30 03:41:52;;;;;;;10.68;2.60;;;17.70;60.20;;;;;;5000892;28;20037;-72
2022/05/30 03:44:18;;;;;;;8.18;2.75;;;17.60;60.20;;;;;;5002852;28;20418;-72
2022/05/30 03:46:44;;;;;;;8.45;2.25;;;17.50;60.30;;;;;;5017254;28;20084;-73
2022/05/30 03:49:10;;;;;;;7.20;2.08;;;17.60;60.40;;;;;;5002508;28;20037;-73
2022/05/30 03:51:35;;;;;;;7.22;2.20;;;17.60;60.10;;;;;;5014727;28;20516;-72
2022/05/30 03:54:01;;;;;;;7.18;2.38;;;17.40;60.60;;;;;;5016350;28;20360;-72
2022/05/30 03:56:27;;;;;;;10.38;2.58;;;17.40;60.80;;;;;;5016497;28;20053;-73
2022/05/30 03:58:53;;;;;;;12.88;3.13;;;17.50;60.90;;;;;;5002693;28;20394;-73
2022/05/30 04:01:18;;;;;;;8.52;2.35;;;17.40;60.70;;;;;;4999942;28;20030;-72
2022/05/30 04:03:44;;;;;;;10.02;2.50;;;17.50;60.60;;;;;;5010314;28;20021;-73
2022/05/30 04:06:10;;;;;;;10.93;2.60;;;17.50;60.40;;;;;;5011352;28;20065;-73
2022/05/30 04:08:36;;;;;;;8.65;2.60;;;17.40;60.70;;;;;;5006611;28;20033;-71
2022/05/30 04:11:03;;;;;;;10.85;2.40;;;17.50;60.80;;;;;;5003324;28;20033;-71
2022/05/30 04:13:28;;;;;;;10.60;2.63;;;17.50;60.60;;;;;;5000328;28;20027;-73
2022/05/30 04:15:54;;;;;;;9.73;3.25;;;17.40;60.80;;;;;;5005134;28;20037;-72
2022/05/30 04:18:20;;;;;;;8.55;2.63;;;17.50;60.80;;;;;;5007036;28;20029;-73
2022/05/30 04:20:46;;;;;;;11.88;2.50;;;17.50;60.80;;;;;;5016084;28;20069;-73
2022/05/30 04:23:13;;;;;;;8.77;2.58;;;17.40;60.70;;;;;;5017281;28;20073;-73
2022/05/30 04:25:39;;;;;;;8.23;2.83;;;17.40;60.90;;;;;;5014352;28;20037;-74
2022/05/30 04:28:05;;;;;;;10.02;2.83;;;17.30;61.20;;;;;;5003561;28;20030;-73
2022/05/30 04:30:31;;;;;;;10.57;2.78;;;17.40;61.50;;;;;;5013350;28;20097;-73
2022/05/30 04:32:56;;;;;;;10.75;2.67;;;17.30;61.40;;;;;;5015759;28;20033;-73
2022/05/30 04:35:22;;;;;;;10.38;2.58;;;17.30;61.60;;;;;;5016613;28;20034;-73
2022/05/30 04:37:49;;;;;;;10.63;2.45;;;17.20;61.60;;;;;;5000808;28;20030;-74
2022/05/30 04:40:18;;;;;;;10.07;2.53;;;17.10;61.60;;;;;;5000445;28;20487;-72
2022/05/30 04:42:47;;;;;;;10.77;2.63;;;17.20;61.90;;;;;;5005286;28;20173;-72
2022/05/30 04:45:14;;;;;;;9.52;2.30;;;17.20;62.00;;;;;;5005511;28;20109;-73
2022/05/30 04:47:40;;;;;;;8.82;2.83;;;17.20;62.30;;;;;;5005382;28;20037;-72
2022/05/30 04:50:16;;;;;;;9.70;2.40;;;17.40;62.20;;;;;;5000705;28;20044;-73
2022/05/30 04:52:42;;;;;;;10.02;2.40;;;17.40;61.90;;;;;;5013470;28;20125;-73
2022/05/30 04:55:10;;;;;;;12.65;2.80;;;17.50;62.10;;;;;;5001616;28;20582;-73
2022/05/30 04:57:46;;;;;;;7.15;2.00;;;17.60;61.70;;;;;;5005405;28;20034;-73
2022/05/30 05:00:14;;;;;;;9.93;2.63;;;17.60;61.80;;;;;;5009773;28;20034;-72
2022/05/30 05:02:40;;;;;;;13.65;2.42;;;17.60;61.50;;;;;;5014163;28;20117;-74
2022/05/30 05:05:07;;;;;;;9.02;2.58;;;17.60;62.00;;;;;;5018563;23;20164;-71
2022/05/30 05:08:25;;;;;;;7.97;2.35;;;17.50;62.60;;;;;;5012553;28;20033;-71
2022/05/30 05:11:04;;;;;;;8.18;2.85;;;17.50;62.70;;;;;;4889623;29;20131;-71
2022/05/30 05:13:30;;;;;;;10.52;2.90;;;17.50;62.70;;;;;;4913861;29;20562;-71
2022/05/30 05:15:57;;;;;;;15.32;3.08;;;17.50;62.80;;;;;;4914183;29;20063;-72
2022/05/30 05:18:22;;;;;;;9.80;2.42;;;17.50;62.80;;;;;;4913635;29;20108;-71
2022/05/30 05:20:48;;;;;;;7.65;2.70;;;17.60;62.70;;;;;;4913028;29;20044;-71
2022/05/30 05:23:14;;;;;;;11.45;2.47;;;17.60;62.70;;;;;;4913837;29;20119;-71
2022/05/30 05:25:40;;;;;;;9.48;2.40;;;17.70;62.80;;;;;;4897247;29;20453;-71
2022/05/30 05:28:07;;;;;;;18.48;2.70;;;17.70;62.40;;;;;;4898227;29;20154;-71
2022/05/30 05:30:33;;;;;;;9.95;2.67;;;17.70;62.80;;;;;;4913314;29;20036;-71
2022/05/30 05:33:00;;;;;;;16.50;2.97;;;17.70;62.80;;;;;;4912500;29;20035;-71
2022/05/30 05:35:26;;;;;;;13.80;2.90;;;17.80;62.50;;;;;;4913255;29;20047;-71
2022/05/30 05:37:52;;;;;;;21.23;3.20;;;18.00;62.20;;;;;;4901888;29;20028;-71
2022/05/30 05:40:18;;;;;;;12.77;3.15;;;18.10;61.60;;;;;;4913576;29;20044;-70
2022/05/30 05:42:44;;;;;;;13.63;2.80;;;18.00;62.40;;;;;;4893220;29;20035;-71
2022/05/30 05:45:10;;;;;;;13.90;3.33;;;18.10;62.10;;;;;;4907998;29;20122;-73
2022/05/30 05:47:36;;;;;;;9.80;2.60;;;18.20;61.80;;;;;;4973549;28;20057;-72
2022/05/30 05:50:02;;;;;;;10.60;2.88;;;18.20;61.80;;;;;;5014424;28;20044;-73
2022/05/30 05:52:32;;;;;;;10.38;2.60;;;18.30;62.20;;;;;;5012204;28;20113;-71
2022/05/30 05:54:58;;;;;;;13.80;2.90;;;18.40;61.40;;;;;;5013403;28;20040;-72
2022/05/30 05:57:27;;;;;;;10.40;2.50;;;18.40;61.40;;;;;;5011961;28;20026;-73
2022/05/30 05:59:53;;;;;;;14.45;2.95;;;18.40;61.10;;;;;;5007062;28;20038;-71
2022/05/30 06:02:19;;;;;;;9.43;2.25;;;18.40;61.10;;;;;;5013136;28;20029;-71
2022/05/30 06:04:45;;;;;;;9.23;2.40;;;18.50;60.90;;;;;;5013007;28;20045;-71
2022/05/30 06:07:13;;;;;;;8.88;2.38;;;18.40;61.00;;;;;;5011107;28;20034;-71
2022/05/30 06:09:39;;;;;;;10.30;2.58;;;18.30;61.10;;;;;;5012975;28;20541;-75
2022/05/30 06:12:07;;;;;;;9.65;3.03;;;18.20;61.50;;;;;;5006976;28;20095;-72
2022/05/30 06:14:33;;;;;;;8.32;2.38;;;18.70;61.30;;;;;;5012177;28;20112;-72
2022/05/30 06:17:00;;;;;;;11.88;2.80;;;18.70;60.70;;;;;;5014734;28;20036;-71
2022/05/30 06:19:27;;;;;;;8.57;2.58;;;18.80;60.80;;;;;;5011859;28;20030;-72
2022/05/30 06:21:52;;;;;;;8.25;2.22;;;18.90;60.20;;;;;;5011302;28;20450;-73
2022/05/30 06:24:18;;;;;;;9.52;2.20;;;19.10;61.00;;;;;;5011928;28;20034;-72
2022/05/30 06:26:44;;;;;;;7.13;2.30;;;19.10;59.30;;;;;;5013298;28;20040;-72
2022/05/30 06:29:14;;;;;;;7.45;2.45;;;18.90;59.30;;;;;;5013507;28;20025;-72
2022/05/30 06:31:40;;;;;;;11.15;2.80;;;18.90;60.00;;;;;;5011192;28;20034;-72
2022/05/30 06:34:06;;;;;;;8.75;2.53;;;19.00;59.90;;;;;;5010339;28;20040;-72
2022/05/30 06:36:33;;;;;;;10.00;2.50;;;19.00;59.20;;;;;;5012851;28;20518;-72
2022/05/30 06:38:59;;;;;;;7.00;2.35;;;19.10;59.60;;;;;;5011705;28;20022;-72
2022/05/30 06:41:29;;;;;;;8.68;2.83;;;19.10;59.80;;;;;;5009549;28;20130;-72
2022/05/30 06:43:58;;;;;;;16.80;2.53;;;19.10;60.20;;;;;;4995814;28;20580;-72
2022/05/30 06:46:24;;;;;;;9.05;2.60;;;19.10;60.10;;;;;;5010015;28;20025;-73
2022/05/30 06:48:54;;;;;;;9.93;2.53;;;18.90;60.20;;;;;;5026094;28;20434;-73
2022/05/30 06:51:21;;;;;;;10.57;2.05;;;18.80;60.30;;;;;;5010228;28;20042;-71
2022/05/30 06:53:47;;;;;;;8.20;2.33;;;18.90;60.50;;;;;;5011512;28;20026;-71
2022/05/30 06:56:14;;;;;;;11.43;2.70;;;19.00;61.10;;;;;;5013994;28;20033;-71
2022/05/30 06:58:40;;;;;;;9.25;2.60;;;19.20;61.30;;;;;;5012282;28;20026;-71
2022/05/30 07:01:06;;;;;;;14.27;3.13;;;19.30;60.90;;;;;;5010354;28;20026;-71
2022/05/30 07:03:32;;;;;;;11.60;2.60;;;19.50;60.70;;;;;;5012149;28;20048;-71
2022/05/30 07:05:58;;;;;;;9.85;2.70;;;19.50;60.70;;;;;;5013574;28;20062;-71
2022/05/30 07:08:24;;;;;;;11.75;2.70;;;19.30;60.20;;;;;;5013848;28;20026;-71
2022/05/30 07:10:51;;;;;;;11.48;2.70;;;19.50;60.00;;;;;;5012079;28;20041;-72
2022/05/30 07:13:17;;;;;;;5.82;2.00;;;19.60;60.10;;;;;;5011129;28;20491;-71
2022/05/30 07:15:43;;;;;;;10.73;2.78;;;19.80;60.10;;;;;;5012429;28;20099;-71
2022/05/30 07:18:11;;;;;;;13.15;2.65;;;19.80;59.60;;;;;;5012249;28;20060;-71
2022/05/30 07:20:37;;;;;;;11.35;2.50;;;19.90;59.70;;;;;;5017289;28;20038;-71
2022/05/30 07:23:03;;;;;;;11.77;2.58;;;19.90;59.40;;;;;;5013979;28;20080;-72
2022/05/30 07:25:33;;;;;;;9.70;2.38;;;20.00;59.50;;;;;;5014935;28;20040;-72
2022/05/30 07:27:59;;;;;;;10.48;2.50;;;20.20;59.50;;;;;;5015465;28;20033;-71
2022/05/30 07:30:24;;;;;;;8.60;2.20;;;20.30;58.50;;;;;;5016063;28;20037;-72
2022/05/30 07:32:50;;;;;;;10.20;2.20;;;20.40;58.50;;;;;;5015594;28;20446;-71
2022/05/30 07:35:16;;;;;;;9.52;2.20;;;20.30;58.60;;;;;;5016652;28;20037;-71
2022/05/30 07:37:43;;;;;;;12.50;2.92;;;20.40;59.30;;;;;;5015719;28;20022;-74
2022/05/30 07:40:09;;;;;;;10.23;2.28;;;20.30;59.30;;;;;;5014750;28;20547;-74
2022/05/30 07:42:34;;;;;;;9.95;2.70;;;20.50;59.20;;;;;;5015670;28;20018;-74
2022/05/30 07:45:00;;;;;;;12.25;2.67;;;20.50;59.20;;;;;;5016643;28;20052;-74
2022/05/30 07:47:27;;;;;;;10.02;2.45;;;20.60;59.20;;;;;;5016767;28;20040;-73
2022/05/30 07:49:53;;;;;;;9.30;2.58;;;20.70;59.40;;;;;;4999536;28;20045;-74
2022/05/30 07:52:19;;;;;;;7.07;1.92;;;20.80;58.50;;;;;;5014636;28;20028;-74
2022/05/30 07:54:45;;;;;;;8.43;2.22;;;20.80;58.80;;;;;;5015137;28;20038;-74
2022/05/30 07:57:11;;;;;;;9.18;2.40;;;20.90;58.70;;;;;;5015110;28;20390;-74
2022/05/30 07:59:36;;;;;;;12.25;2.60;;;20.90;58.50;;;;;;5009732;28;20122;-74
2022/05/30 08:02:04;;;;;;;8.40;2.55;;;21.00;58.70;;;;;;5015031;28;20487;-74
2022/05/30 08:04:30;;;;;;;12.93;2.88;;;21.10;58.80;;;;;;5013773;28;20077;-74
2022/05/30 08:06:56;;;;;;;12.07;2.55;;;21.10;57.30;;;;;;5015307;28;20041;-74
2022/05/30 08:09:22;;;;;;;13.32;2.50;;;21.10;58.40;;;;;;5009049;28;20018;-74
2022/05/30 08:11:48;;;;;;;9.57;2.60;;;21.20;58.20;;;;;;5009006;28;20029;-74
2022/05/30 08:14:14;;;;;;;11.00;2.30;;;21.20;58.20;;;;;;5016355;28;20482;-74
2022/05/30 08:16:39;;;;;;;11.07;2.85;;;21.30;57.60;;;;;;5015235;28;20037;-74
2022/05/30 08:19:06;;;;;;;8.48;2.53;;;21.40;58.60;;;;;;5013753;28;20053;-74
2022/05/30 08:21:32;;;;;;;7.43;2.15;;;21.50;58.00;;;;;;5013234;28;20029;-73
2022/05/30 08:23:58;;;;;;;6.95;2.53;;;21.60;58.20;;;;;;5015909;28;20414;-74
2022/05/30 08:26:24;;;;;;;12.38;2.65;;;21.70;57.40;;;;;;5016473;28;20097;-74
2022/05/30 08:28:49;;;;;;;10.50;2.35;;;21.70;57.80;;;;;;5014652;28;20034;-74
2022/05/30 08:31:16;;;;;;;9.57;2.60;;;21.80;56.70;;;;;;5013069;28;20042;-74
2022/05/30 08:33:43;;;;;;;9.57;2.65;;;21.80;57.80;;;;;;5014089;28;20522;-73
2022/05/30 08:36:11;;;;;;;8.52;2.22;;;21.90;58.30;;;;;;5014718;28;20045;-74
2022/05/30 08:38:38;;;;;;;7.85;2.60;;;21.90;57.40;;;;;;5015647;28;20049;-74
2022/05/30 08:43:55;;;;;;;7.45;1.95;;;22.00;57.20;;;;;;5014468;28;20037;-74
2022/05/30 08:46:43;;;;;;;7.25;2.58;;;22.20;57.40;;;;;;5008163;28;20025;-74
2022/05/30 08:49:26;;;;;;;6.93;2.17;;;22.30;57.10;;;;;;5011828;28;20030;-74
2022/05/30 08:52:19;;;;;;;8.80;2.25;;;22.40;56.30;;;;;;5014542;28;20042;-74
2022/05/30 08:54:58;;;;;;;12.43;2.30;;;22.40;55.90;;;;;;5015245;28;20048;-74
2022/05/30 08:57:51;;;;;;;10.13;2.20;;;22.40;55.50;;;;;;5008365;28;20079;-74
2022/05/30 09:00:29;;;;;;;9.05;2.03;;;22.60;56.60;;;;;;5014061;28;20029;-74
2022/05/30 09:03:06;;;;;;;7.10;2.20;;;22.70;56.60;;;;;;5015210;28;20041;-74
2022/05/30 09:05:41;;;;;;;13.27;2.65;;;22.90;55.90;;;;;;5014947;28;20561;-74
2022/05/30 09:08:13;;;;;;;5.53;1.90;;;22.80;55.20;;;;;;5014040;28;20028;-74
2022/05/30 09:10:51;;;;;;;12.48;3.22;;;22.90;56.50;;;;;;5013918;28;20367;-73
2022/05/30 09:13:42;;;;;;;7.70;1.80;;;23.10;55.90;;;;;;5011933;28;20030;-73
2022/05/30 09:16:14;;;;;;;11.52;2.25;;;23.10;53.60;;;;;;4993501;28;20046;-74
2022/05/30 09:18:45;;;;;;;11.75;2.50;;;23.00;53.60;;;;;;5005122;28;20072;-74
2022/05/30 09:21:14;;;;;;;10.30;2.10;;;22.90;53.80;;;;;;5004616;28;20026;-74
2022/05/30 09:23:40;;;;;;;6.53;2.38;;;23.00;54.30;;;;;;5004474;28;20491;-75
2022/05/30 09:26:11;;;;;;;11.65;2.10;;;23.20;54.40;;;;;;5005775;28;20037;-74
2022/05/30 09:28:41;;;;;;;8.75;2.15;;;23.50;54.10;;;;;;5003032;28;20061;-75
2022/05/30 09:31:25;;;;;;;7.72;2.00;;;23.60;54.10;;;;;;5001058;28;20044;-76
2022/05/30 09:33:53;;;;;;;7.18;1.73;;;23.90;54.30;;;;;;4999149;28;20034;-74
2022/05/30 09:36:27;;;;;;;8.20;2.10;;;24.00;51.40;;;;;;5009752;28;20450;-76
2022/05/30 09:39:03;;;;;;;8.80;1.98;;;24.00;51.10;;;;;;5013276;28;20395;-75
2022/05/30 09:41:38;;;;;;;8.60;2.28;;;23.80;51.80;;;;;;5014480;28;20026;-75
2022/05/30 09:44:26;;;;;;;5.80;1.88;;;23.60;51.30;;;;;;5003113;28;20034;-75
2022/05/30 09:47:01;;;;;;;5.72;1.90;;;23.60;51.70;;;;;;5021273;28;20026;-75
2022/05/30 09:49:48;;;;;;;8.52;1.90;;;23.80;52.00;;;;;;5005431;28;20018;-75
2022/05/30 09:52:33;;;;;;;7.88;1.80;;;23.90;51.30;;;;;;5008497;28;20036;-75
2022/05/30 09:54:59;;;;;;;8.57;2.05;;;24.00;52.20;;;;;;5008242;28;20030;-74
2022/05/30 09:57:40;;;;;;;7.68;2.20;;;24.30;52.10;;;;;;5005846;28;20034;-75
2022/05/30 10:00:10;;;;;;;6.40;1.70;;;24.40;52.60;;;;;;5005908;28;20038;-75
2022/05/30 10:02:38;;;;;;;7.85;2.10;;;24.50;52.70;;;;;;5005586;28;20034;-75
2022/05/30 10:05:25;;;;;;;7.15;1.90;;;24.60;52.40;;;;;;5006299;28;20050;-76
2022/05/30 10:08:04;;;;;;;8.70;2.53;;;24.30;50.80;;;;;;5006419;28;20731;-80
2022/05/30 10:10:32;;;;;;;13.55;2.42;;;24.10;51.20;;;;;;5028227;23;20120;-71
2022/05/30 10:13:09;;;;;;;8.48;1.90;;;24.10;50.80;;;;;;5030068;28;20064;-71
2022/05/30 10:15:54;;;;;;;4.68;1.60;;;24.20;51.50;;;;;;5025110;28;20055;-70
2022/05/30 10:18:33;;;;;;;10.05;1.88;;;24.30;51.20;;;;;;5026134;28;20040;-70
2022/05/30 10:21:26;;;;;;;4.80;1.90;;;24.50;51.80;;;;;;5025327;28;20822;-71
2022/05/30 10:30:36;;;;;;;7.82;2.00;;;24.70;51.50;;;;;;5024148;28;20429;-70
2022/05/30 10:33:29;;;;;;;7.00;2.08;;;24.80;52.50;;;;;;5026901;28;20029;-71
2022/05/30 10:36:20;;;;;;;7.05;1.92;;;24.70;50.80;;;;;;5026825;28;20029;-71
2022/05/30 10:39:11;;;;;;;9.07;2.00;;;24.60;52.20;;;;;;5027229;28;20095;-71
2022/05/30 10:41:47;;;;;;;8.23;2.00;;;24.50;51.50;;;;;;5025684;28;20713;-71
2022/05/30 10:44:27;;;;;;;8.10;2.05;;;24.60;51.50;;;;;;5024693;28;20493;-71
2022/05/30 10:47:21;;;;;;;4.70;1.83;;;24.80;50.90;;;;;;5025172;28;20034;-71
2022/05/30 10:50:01;;;;;;;;;;;24.80;51.50;;;;;;5025325;28;20045;-71
2022/05/30 10:52:45;;;;;;;7.18;2.05;;;25.00;51.30;;;;;;5025440;28;19954;-71
2022/05/30 10:55:18;;;;;;;6.63;2.00;;;25.10;51.50;;;;;;5032359;28;20172;-71
2022/05/30 10:58:30;;;;;;;6.40;1.92;;;25.40;51.80;;;;;;5030394;28;20072;-71
2022/05/30 11:01:02;;;;;;;12.40;1.92;;;25.10;50.20;;;;;;5030690;28;20036;-71
2022/05/30 11:03:50;;;;;;;7.85;1.75;;;25.10;51.80;;;;;;5031549;28;20042;-71
2022/05/30 11:06:29;;;;;;;7.80;1.83;;;25.20;51.90;;;;;;5030231;28;20029;-71
2022/05/30 11:09:12;;;;;;;7.95;1.90;;;25.40;52.20;;;;;;5030172;28;20721;-71
2022/05/30 11:11:51;;;;;;;5.32;1.80;;;25.40;51.80;;;;;;5028954;28;20748;-71
2022/05/30 11:14:25;;;;;;;6.25;2.05;;;25.20;50.90;;;;;;5029946;28;20025;-71
2022/05/30 11:17:13;;;;;;;7.90;1.92;;;25.10;50.50;;;;;;5031660;28;20029;-71
2022/05/30 11:19:56;;;;;;;7.90;1.80;;;25.30;50.50;;;;;;5031944;28;20086;-71
2022/05/30 11:22:30;;;;;;;7.57;2.00;;;25.60;52.50;;;;;;5034174;28;20026;-71
2022/05/30 11:24:56;;;;;;;5.60;2.22;;;25.50;51.40;;;;;;5030908;28;20041;-71
2022/05/30 11:27:31;;;;;;;5.15;1.70;;;25.60;51.90;;;;;;5029780;28;20045;-71
2022/05/30 11:30:08;;;;;;;5.20;2.03;;;25.60;52.40;;;;;;5029607;28;20052;-71
2022/05/30 11:32:36;;;;;;;6.78;2.08;;;25.60;51.10;;;;;;5026415;28;20037;-71
2022/05/30 11:35:24;;;;;;;7.25;1.50;;;25.40;50.80;;;;;;5030049;28;20037;-71
2022/05/30 11:38:17;;;;;;;6.43;2.15;;;25.40;50.40;;;;;;5030985;28;20104;-71
2022/05/30 11:41:06;;;;;;;7.53;2.00;;;25.20;50.40;;;;;;5029241;28;20037;-71
2022/05/30 11:44:09;;;;;;;6.18;1.85;;;25.00;51.00;;;;;;5029114;28;20041;-71
2022/05/30 11:47:06;;;;;;;6.63;2.15;;;25.10;51.60;;;;;;5029690;28;20026;-71
2022/05/30 11:49:35;;;;;;;6.82;2.00;;;25.20;51.20;;;;;;5044236;28;20033;-71
2022/05/30 11:52:13;;;;;;;9.18;2.33;;;25.10;50.90;;;;;;5030620;28;20025;-71
2022/05/30 11:55:01;;;;;;;6.78;1.75;;;25.20;51.20;;;;;;5029313;28;20055;-71
2022/05/30 11:57:47;;;;;;;5.80;1.83;;;25.10;51.10;;;;;;5029047;28;20099;-71
2022/05/30 12:00:21;;;;;;;6.82;2.00;;;25.20;51.60;;;;;;5030629;28;20037;-71
2022/05/30 12:03:04;;;;;;;8.43;2.00;;;25.10;50.70;;;;;;5029213;28;20125;-71
2022/05/30 12:05:57;;;;;;;6.75;2.00;;;25.20;51.20;;;;;;5028072;28;20038;-71
2022/05/30 12:08:41;;;;;;;6.13;1.83;;;25.40;51.70;;;;;;5029425;28;20070;-71
2022/05/30 12:11:41;;;;;;;6.00;1.98;;;25.40;51.40;;;;;;5014845;28;20100;-71
2022/05/30 12:14:34;;;;;;;6.65;1.88;;;25.70;52.10;;;;;;5014884;28;20029;-71
2022/05/30 12:17:18;;;;;;;7.60;1.85;;;26.10;52.70;;;;;;5014142;28;20021;-72
2022/05/30 12:25:36;;;;;;;11.00;2.20;;;26.30;50.40;;;;;;4951047;29;20400;-71
2022/05/30 12:28:03;;;;;;;5.72;1.70;;;26.20;51.30;;;;;;4952310;29;20039;-71
2022/05/30 12:30:35;;;;;;;5.07;1.67;;;26.30;50.80;;;;;;4950506;29;20051;-71
2022/05/30 12:33:28;;;;;;;7.60;2.20;;;26.00;50.40;;;;;;4947849;29;20042;-72
2022/05/30 12:36:06;;;;;;;7.10;2.03;;;26.10;51.80;;;;;;4949506;28;20042;-71
2022/05/30 12:38:52;;;;;;;8.27;1.73;;;26.00;50.20;;;;;;4942452;29;20059;-71
2022/05/30 12:41:39;;;;;;;8.18;2.10;;;25.90;50.40;;;;;;4940174;28;20047;-71
2022/05/30 12:44:42;;;;;;;6.97;1.65;;;25.60;50.70;;;;;;4940467;29;20779;-71
2022/05/30 12:47:13;;;;;;;5.00;1.60;;;25.40;51.30;;;;;;4946412;29;20054;-72
2022/05/30 12:49:41;;;;;;;5.82;2.00;;;25.20;51.70;;;;;;4950370;29;20054;-71
2022/05/30 12:52:17;;;;;;;6.20;2.05;;;25.10;51.20;;;;;;4932502;29;20039;-71
2022/05/30 12:54:58;;;;;;;5.32;1.80;;;25.10;51.10;;;;;;4947018;29;20031;-71
2022/05/30 12:57:44;;;;;;;7.50;1.90;;;25.00;51.30;;;;;;4939711;28;20460;-71
2022/05/30 13:00:16;;;;;;;6.20;2.00;;;25.00;51.20;;;;;;5023413;28;20037;-71
2022/05/30 13:02:49;;;;;;;11.75;2.53;;;25.00;51.80;;;;;;5029667;28;20080;-70
2022/05/30 13:05:23;;;;;;;6.37;1.90;;;24.90;53.50;;;;;;5030825;28;20029;-71
2022/05/30 13:07:49;;;;;;;9.75;2.70;;;24.80;54.30;;;;;;5029242;28;20057;-71
2022/05/30 13:10:14;;;;;;;7.95;2.20;;;24.80;54.40;;;;;;5032436;28;20096;-71
2022/05/30 13:12:56;;;;;;;10.73;1.80;;;24.80;54.70;;;;;;5029295;28;20108;-71
2022/05/30 13:15:26;;;;;;;12.38;2.30;;;24.80;55.50;;;;;;5029190;28;20021;-71
2022/05/30 13:17:56;;;;;;;10.43;2.20;;;24.80;57.10;;;;;;5018060;28;20029;-71
2022/05/30 13:20:32;;;;;;;11.38;2.70;;;24.80;57.20;;;;;;5029231;28;20029;-71
2022/05/30 13:23:03;;;;;;;18.25;2.53;;;24.90;58.30;;;;;;5014537;28;20040;-72
2022/05/30 13:25:36;;;;;;;10.93;2.40;;;25.20;57.50;;;;;;5032997;28;20022;-71
2022/05/30 13:28:05;;;;;;;10.98;2.20;;;25.20;57.10;;;;;;5027189;28;20032;-71
2022/05/30 13:30:31;;;;;;;60.75;5.90;;;25.50;57.20;;;;;;5029237;28;20042;-70
2022/05/30 13:32:57;;;;;;;9.65;1.95;;;25.40;57.00;;;;;;5029098;28;20033;-71